Terminal Aerodrome Forecast
Issued by NWS Grand Rapids, MI

Home | Current Version | Previous Version | Text Only | Print | Product List | Glossary On
Versions: 1 2 3 4 5 6 7 8 9 10 11 12 13 14 15 16 17 18 19 20 21 22 23 24 25 26 27 28 29
000
FTUS43 KGRR 211100
TAFGRR
TAF
KGRR 211139Z 2112/2212 26013G20KT P6SM OVC025
     FM211400 29018G28KT P6SM OVC018
     FM211500 31018G28KT 4SM -SHRA BR OVC007
     FM211700 32018G30KT P6SM VCSH OVC015
     FM211800 32016G28KT P6SM BKN035
     FM220200 34012KT P6SM BKN015=

USA.gov is the U.S. government's official web portal to all federal, state and local government web resources and services.